sensor_id;sensor_type;location;lat;lon;timestamp;pressure;altitude;pressure_sealevel;temperature;humidity
49779;BME280;36217;60.232;24.776;2023-01-30T00:00:56;97999.48;;;0.47;100.00
49779;BME280;36217;60.232;24.776;2023-01-30T00:03:24;97983.77;;;0.98;100.00
49779;BME280;36217;60.232;24.776;2023-01-30T00:05:51;97979.56;;;0.93;100.00
49779;BME280;36217;60.232;24.776;2023-01-30T00:08:19;97971.00;;;0.38;100.00
49779;BME280;36217;60.232;24.776;2023-01-30T00:10:47;97956.83;;;0.48;100.00
49779;BME280;36217;60.232;24.776;2023-01-30T00:13:14;97947.33;;;0.32;100.00
49779;BME280;36217;60.232;24.776;2023-01-30T00:15:42;97931.58;;;0.21;100.00
49779;BME280;36217;60.232;24.776;2023-01-30T00:18:09;97913.46;;;0.40;100.00
49779;BME280;36217;60.232;24.776;2023-01-30T00:20:36;97912.07;;;0.56;100.00
49779;BME280;36217;60.232;24.776;2023-01-30T00:23:04;97892.30;;;0.73;100.00
49779;BME280;36217;60.232;24.776;2023-01-30T00:25:32;97892.81;;;0.56;100.00
49779;BME280;36217;60.232;24.776;2023-01-30T00:27:59;97880.71;;;0.47;100.00
49779;BME280;36217;60.232;24.776;2023-01-30T00:30:27;97868.18;;;0.58;100.00
49779;BME280;36217;60.232;24.776;2023-01-30T00:32:54;97865.25;;;0.73;100.00
49779;BME280;36217;60.232;24.776;2023-01-30T00:35:21;97849.88;;;1.03;100.00
49779;BME280;36217;60.232;24.776;2023-01-30T00:37:48;97841.63;;;0.38;100.00
49779;BME280;36217;60.232;24.776;2023-01-30T00:40:16;97833.28;;;0.58;100.00
49779;BME280;36217;60.232;24.776;2023-01-30T00:42:43;97824.11;;;0.84;100.00
49779;BME280;36217;60.232;24.776;2023-01-30T00:45:12;97825.70;;;0.33;100.00
49779;BME280;36217;60.232;24.776;2023-01-30T00:47:39;97825.17;;;0.78;100.00
49779;BME280;36217;60.232;24.776;2023-01-30T00:50:08;97805.34;;;0.50;100.00
49779;BME280;36217;60.232;24.776;2023-01-30T00:52:35;97794.46;;;0.50;100.00
49779;BME280;36217;60.232;24.776;2023-01-30T00:55:02;97789.15;;;0.58;100.00
49779;BME280;36217;60.232;24.776;2023-01-30T00:57:29;97781.11;;;0.77;100.00
49779;BME280;36217;60.232;24.776;2023-01-30T00:59:56;97778.71;;;0.29;100.00
49779;BME280;36217;60.232;24.776;2023-01-30T01:02:23;97766.98;;;0.63;100.00
49779;BME280;36217;60.232;24.776;2023-01-30T01:04:50;97759.51;;;0.80;100.00
49779;BME280;36217;60.232;24.776;2023-01-30T01:07:17;97752.79;;;0.43;100.00
49779;BME280;36217;60.232;24.776;2023-01-30T01:09:45;97746.39;;;0.73;100.00
49779;BME280;36217;60.232;24.776;2023-01-30T01:12:12;97742.23;;;0.50;100.00
49779;BME280;36217;60.232;24.776;2023-01-30T01:14:39;97737.84;;;0.67;100.00
49779;BME280;36217;60.232;24.776;2023-01-30T01:17:06;97722.53;;;0.70;100.00
49779;BME280;36217;60.232;24.776;2023-01-30T01:19:34;97715.99;;;0.22;100.00
49779;BME280;36217;60.232;24.776;2023-01-30T01:22:01;97703.25;;;0.81;100.00
49779;BME280;36217;60.232;24.776;2023-01-30T01:24:29;97694.07;;;0.45;100.00
49779;BME280;36217;60.232;24.776;2023-01-30T01:26:56;97691.53;;;0.90;100.00
49779;BME280;36217;60.232;24.776;2023-01-30T01:29:23;97681.70;;;0.90;100.00
49779;BME280;36217;60.232;24.776;2023-01-30T01:31:50;97677.80;;;0.82;100.00
49779;BME280;36217;60.232;24.776;2023-01-30T01:34:17;97669.49;;;0.76;100.00
49779;BME280;36217;60.232;24.776;2023-01-30T01:36:47;97665.23;;;0.78;100.00
49779;BME280;36217;60.232;24.776;2023-01-30T01:40:06;97660.16;;;0.69;100.00
49779;BME280;36217;60.232;24.776;2023-01-30T01:42:35;97663.54;;;0.30;100.00
49779;BME280;36217;60.232;24.776;2023-01-30T01:45:13;97655.99;;;1.00;100.00
49779;BME280;36217;60.232;24.776;2023-01-30T01:47:46;97655.58;;;1.14;100.00
49779;BME280;36217;60.232;24.776;2023-01-30T01:50:17;97650.92;;;0.61;100.00
49779;BME280;36217;60.232;24.776;2023-01-30T01:52:46;97652.10;;;0.72;100.00
49779;BME280;36217;60.232;24.776;2023-01-30T01:55:15;97633.31;;;1.25;100.00
49779;BME280;36217;60.232;24.776;2023-01-30T01:57:45;97629.04;;;0.73;100.00
49779;BME280;36217;60.232;24.776;2023-01-30T02:00:18;97624.65;;;0.83;100.00
49779;BME280;36217;60.232;24.776;2023-01-30T02:02:49;97616.22;;;1.04;100.00
49779;BME280;36217;60.232;24.776;2023-01-30T02:05:19;97607.62;;;0.62;100.00
49779;BME280;36217;60.232;24.776;2023-01-30T02:07:51;97610.47;;;0.85;100.00
49779;BME280;36217;60.232;24.776;2023-01-30T02:10:24;97604.70;;;0.97;100.00
49779;BME280;36217;60.232;24.776;2023-01-30T02:12:53;97595.09;;;0.88;100.00
49779;BME280;36217;60.232;24.776;2023-01-30T02:15:20;97580.42;;;0.82;100.00
49779;BME280;36217;60.232;24.776;2023-01-30T02:17:47;97566.65;;;0.85;100.00
49779;BME280;36217;60.232;24.776;2023-01-30T02:20:22;97576.35;;;1.38;100.00
49779;BME280;36217;60.232;24.776;2023-01-30T02:23:08;97569.39;;;0.78;100.00
49779;BME280;36217;60.232;24.776;2023-01-30T02:26:31;97559.87;;;1.02;100.00
49779;BME280;36217;60.232;24.776;2023-01-30T02:31:34;97553.95;;;0.90;100.00
49779;BME280;36217;60.232;24.776;2023-01-30T02:34:18;97542.90;;;0.88;100.00
49779;BME280;36217;60.232;24.776;2023-01-30T02:36:56;97538.40;;;1.43;100.00
49779;BME280;36217;60.232;24.776;2023-01-30T02:39:33;97535.96;;;1.10;100.00
49779;BME280;36217;60.232;24.776;2023-01-30T02:42:10;97528.06;;;1.13;100.00
49779;BME280;36217;60.232;24.776;2023-01-30T02:44:47;97519.52;;;0.91;100.00
49779;BME280;36217;60.232;24.776;2023-01-30T02:47:22;97511.45;;;1.00;100.00
49779;BME280;36217;60.232;24.776;2023-01-30T02:49:53;97507.84;;;1.01;100.00
49779;BME280;36217;60.232;24.776;2023-01-30T02:52:23;97504.88;;;1.01;100.00
49779;BME280;36217;60.232;24.776;2023-01-30T02:54:51;97501.12;;;0.98;100.00
49779;BME280;36217;60.232;24.776;2023-01-30T02:57:19;97492.86;;;1.38;100.00
49779;BME280;36217;60.232;24.776;2023-01-30T02:59:48;97486.25;;;1.13;100.00
49779;BME280;36217;60.232;24.776;2023-01-30T03:02:41;97489.75;;;0.84;100.00
49779;BME280;36217;60.232;24.776;2023-01-30T03:05:21;97482.26;;;1.15;100.00
49779;BME280;36217;60.232;24.776;2023-01-30T03:08:06;97464.83;;;0.90;100.00
49779;BME280;36217;60.232;24.776;2023-01-30T03:10:40;97463.18;;;0.90;100.00
49779;BME280;36217;60.232;24.776;2023-01-30T03:13:13;97451.09;;;1.28;100.00
49779;BME280;36217;60.232;24.776;2023-01-30T03:15:46;97442.57;;;1.19;100.00
49779;BME280;36217;60.232;24.776;2023-01-30T03:18:16;97442.09;;;1.11;100.00
49779;BME280;36217;60.232;24.776;2023-01-30T03:20:43;97438.46;;;1.09;100.00
49779;BME280;36217;60.232;24.776;2023-01-30T03:23:10;97436.52;;;1.10;100.00
49779;BME280;36217;60.232;24.776;2023-01-30T03:25:41;97434.23;;;1.14;100.00
49779;BME280;36217;60.232;24.776;2023-01-30T03:28:10;97420.31;;;1.21;100.00
49779;BME280;36217;60.232;24.776;2023-01-30T03:30:39;97418.69;;;1.30;100.00
49779;BME280;36217;60.232;24.776;2023-01-30T03:33:06;97413.11;;;1.31;100.00
49779;BME280;36217;60.232;24.776;2023-01-30T03:35:33;97394.02;;;1.23;100.00
49779;BME280;36217;60.232;24.776;2023-01-30T03:38:01;97391.73;;;0.94;100.00
49779;BME280;36217;60.232;24.776;2023-01-30T03:40:28;97395.69;;;1.29;100.00
49779;BME280;36217;60.232;24.776;2023-01-30T03:42:55;97389.79;;;1.41;100.00
49779;BME280;36217;60.232;24.776;2023-01-30T03:45:22;97387.09;;;1.25;100.00
49779;BME280;36217;60.232;24.776;2023-01-30T03:47:49;97381.66;;;1.01;100.00
49779;BME280;36217;60.232;24.776;2023-01-30T03:50:17;97376.55;;;1.18;100.00
49779;BME280;36217;60.232;24.776;2023-01-30T03:52:43;97368.65;;;1.28;100.00
49779;BME280;36217;60.232;24.776;2023-01-30T03:55:11;97361.65;;;1.26;100.00
49779;BME280;36217;60.232;24.776;2023-01-30T03:57:39;97354.87;;;1.26;100.00
49779;BME280;36217;60.232;24.776;2023-01-30T04:00:07;97348.38;;;1.22;100.00
49779;BME280;36217;60.232;24.776;2023-01-30T04:02:35;97346.18;;;0.72;100.00
49779;BME280;36217;60.232;24.776;2023-01-30T04:05:02;97342.42;;;1.09;100.00
49779;BME280;36217;60.232;24.776;2023-01-30T04:07:29;97332.53;;;1.15;100.00
49779;BME280;36217;60.232;24.776;2023-01-30T04:09:56;97330.03;;;1.24;100.00
49779;BME280;36217;60.232;24.776;2023-01-30T04:12:23;97323.27;;;1.15;100.00
49779;BME280;36217;60.232;24.776;2023-01-30T04:14:50;97321.71;;;1.35;100.00
49779;BME280;36217;60.232;24.776;2023-01-30T04:17:18;97315.15;;;1.28;100.00
49779;BME280;36217;60.232;24.776;2023-01-30T04:19:45;97304.82;;;1.22;100.00
49779;BME280;36217;60.232;24.776;2023-01-30T04:22:12;97293.05;;;1.23;100.00
49779;BME280;36217;60.232;24.776;2023-01-30T04:24:39;97284.47;;;1.25;100.00
49779;BME280;36217;60.232;24.776;2023-01-30T04:27:06;97279.87;;;1.00;100.00
49779;BME280;36217;60.232;24.776;2023-01-30T04:29:33;97277.77;;;1.21;100.00
49779;BME280;36217;60.232;24.776;2023-01-30T04:32:01;97273.25;;;1.25;100.00
49779;BME280;36217;60.232;24.776;2023-01-30T04:34:28;97265.93;;;1.23;100.00
49779;BME280;36217;60.232;24.776;2023-01-30T04:36:55;97255.24;;;1.26;100.00
49779;BME280;36217;60.232;24.776;2023-01-30T04:39:22;97248.21;;;1.27;100.00
49779;BME280;36217;60.232;24.776;2023-01-30T04:41:49;97239.73;;;1.17;100.00
49779;BME280;36217;60.232;24.776;2023-01-30T04:44:16;97238.46;;;1.22;100.00
49779;BME280;36217;60.232;24.776;2023-01-30T04:46:44;97237.40;;;1.31;100.00
49779;BME280;36217;60.232;24.776;2023-01-30T04:49:11;97228.33;;;1.14;100.00
49779;BME280;36217;60.232;24.776;2023-01-30T04:51:38;97210.75;;;1.20;100.00
49779;BME280;36217;60.232;24.776;2023-01-30T04:54:05;97216.19;;;1.20;100.00
49779;BME280;36217;60.232;24.776;2023-01-30T04:56:32;97208.70;;;1.25;100.00
49779;BME280;36217;60.232;24.776;2023-01-30T04:58:59;97205.45;;;1.25;100.00
49779;BME280;36217;60.232;24.776;2023-01-30T05:01:30;97199.03;;;1.28;100.00
49779;BME280;36217;60.232;24.776;2023-01-30T05:03:57;97190.51;;;1.40;100.00
49779;BME280;36217;60.232;24.776;2023-01-30T05:06:25;97187.30;;;1.36;100.00
49779;BME280;36217;60.232;24.776;2023-01-30T05:08:53;97176.94;;;1.27;100.00
49779;BME280;36217;60.232;24.776;2023-01-30T05:11:21;97176.33;;;0.92;100.00
49779;BME280;36217;60.232;24.776;2023-01-30T05:13:49;97169.57;;;1.38;100.00
49779;BME280;36217;60.232;24.776;2023-01-30T05:16:17;97179.20;;;1.19;100.00
49779;BME280;36217;60.232;24.776;2023-01-30T05:18:45;97179.43;;;1.28;100.00
49779;BME280;36217;60.232;24.776;2023-01-30T05:21:14;97178.49;;;1.11;100.00
49779;BME280;36217;60.232;24.776;2023-01-30T05:23:42;97175.19;;;1.24;100.00
49779;BME280;36217;60.232;24.776;2023-01-30T05:26:10;97174.80;;;1.14;100.00
49779;BME280;36217;60.232;24.776;2023-01-30T05:28:37;97167.91;;;1.07;100.00
49779;BME280;36217;60.232;24.776;2023-01-30T05:31:07;97167.66;;;1.22;100.00
49779;BME280;36217;60.232;24.776;2023-01-30T05:33:34;97167.02;;;1.24;100.00
49779;BME280;36217;60.232;24.776;2023-01-30T05:36:01;97160.27;;;1.09;100.00
49779;BME280;36217;60.232;24.776;2023-01-30T05:38:29;97157.17;;;1.14;100.00
49779;BME280;36217;60.232;24.776;2023-01-30T05:40:57;97161.76;;;1.28;100.00
49779;BME280;36217;60.232;24.776;2023-01-30T05:43:25;97158.60;;;1.55;100.00
49779;BME280;36217;60.232;24.776;2023-01-30T05:45:52;97152.72;;;1.22;100.00
49779;BME280;36217;60.232;24.776;2023-01-30T05:48:20;97150.06;;;1.05;100.00
49779;BME280;36217;60.232;24.776;2023-01-30T05:50:49;97142.87;;;1.40;100.00
49779;BME280;36217;60.232;24.776;2023-01-30T05:53:18;97148.34;;;1.13;100.00
49779;BME280;36217;60.232;24.776;2023-01-30T05:55:45;97134.64;;;0.89;100.00
49779;BME280;36217;60.232;24.776;2023-01-30T05:58:12;97142.03;;;0.95;100.00
49779;BME280;36217;60.232;24.776;2023-01-30T06:00:39;97135.84;;;0.84;100.00
49779;BME280;36217;60.232;24.776;2023-01-30T06:03:06;97132.46;;;1.18;100.00
49779;BME280;36217;60.232;24.776;2023-01-30T06:05:36;97118.86;;;0.98;100.00
49779;BME280;36217;60.232;24.776;2023-01-30T06:08:04;97120.17;;;1.08;100.00
49779;BME280;36217;60.232;24.776;2023-01-30T06:10:31;97121.03;;;1.18;100.00
49779;BME280;36217;60.232;24.776;2023-01-30T06:12:58;97108.36;;;1.10;100.00
49779;BME280;36217;60.232;24.776;2023-01-30T06:15:25;97108.02;;;1.00;100.00
49779;BME280;36217;60.232;24.776;2023-01-30T06:17:53;97109.62;;;0.98;100.00
49779;BME280;36217;60.232;24.776;2023-01-30T06:20:20;97107.67;;;1.15;100.00
49779;BME280;36217;60.232;24.776;2023-01-30T06:22:47;97110.46;;;1.10;100.00
49779;BME280;36217;60.232;24.776;2023-01-30T06:25:14;97107.95;;;1.10;100.00
49779;BME280;36217;60.232;24.776;2023-01-30T06:27:41;97098.22;;;1.15;100.00
49779;BME280;36217;60.232;24.776;2023-01-30T06:30:09;97102.32;;;1.13;100.00
49779;BME280;36217;60.232;24.776;2023-01-30T06:32:36;97096.42;;;1.25;100.00
49779;BME280;36217;60.232;24.776;2023-01-30T06:35:04;97082.13;;;1.14;100.00
49779;BME280;36217;60.232;24.776;2023-01-30T06:37:32;97071.87;;;1.07;100.00
49779;BME280;36217;60.232;24.776;2023-01-30T06:40:10;97076.93;;;1.32;100.00
49779;BME280;36217;60.232;24.776;2023-01-30T06:42:37;97075.89;;;0.91;100.00
49779;BME280;36217;60.232;24.776;2023-01-30T06:45:05;97068.37;;;1.00;100.00
49779;BME280;36217;60.232;24.776;2023-01-30T06:47:32;97055.20;;;1.15;100.00
49779;BME280;36217;60.232;24.776;2023-01-30T06:50:00;97051.46;;;1.23;100.00
49779;BME280;36217;60.232;24.776;2023-01-30T06:52:27;97043.45;;;1.06;100.00
49779;BME280;36217;60.232;24.776;2023-01-30T06:54:54;97049.30;;;1.07;100.00
49779;BME280;36217;60.232;24.776;2023-01-30T06:57:21;97041.71;;;1.38;100.00
49779;BME280;36217;60.232;24.776;2023-01-30T06:59:48;97047.52;;;1.30;100.00
49779;BME280;36217;60.232;24.776;2023-01-30T07:02:15;97040.12;;;0.90;100.00
49779;BME280;36217;60.232;24.776;2023-01-30T07:04:43;97034.79;;;1.02;100.00
49779;BME280;36217;60.232;24.776;2023-01-30T07:07:10;97031.77;;;0.86;100.00
49779;BME280;36217;60.232;24.776;2023-01-30T07:09:37;97028.34;;;1.15;100.00
49779;BME280;36217;60.232;24.776;2023-01-30T07:12:05;97033.87;;;1.11;100.00
49779;BME280;36217;60.232;24.776;2023-01-30T07:14:31;97028.65;;;0.87;100.00
49779;BME280;36217;60.232;24.776;2023-01-30T07:16:58;97025.08;;;0.91;100.00
49779;BME280;36217;60.232;24.776;2023-01-30T07:19:25;97026.68;;;0.94;100.00
49779;BME280;36217;60.232;24.776;2023-01-30T07:21:53;97028.54;;;0.96;100.00
49779;BME280;36217;60.232;24.776;2023-01-30T07:24:20;97026.36;;;0.85;100.00
49779;BME280;36217;60.232;24.776;2023-01-30T07:26:47;97017.19;;;1.17;100.00
49779;BME280;36217;60.232;24.776;2023-01-30T07:29:14;97031.29;;;1.12;100.00
49779;BME280;36217;60.232;24.776;2023-01-30T07:31:41;97041.62;;;1.07;100.00
49779;BME280;36217;60.232;24.776;2023-01-30T07:34:08;97028.76;;;1.11;100.00
49779;BME280;36217;60.232;24.776;2023-01-30T07:36:36;97024.74;;;0.99;100.00
49779;BME280;36217;60.232;24.776;2023-01-30T07:39:03;97012.72;;;1.14;100.00
49779;BME280;36217;60.232;24.776;2023-01-30T07:41:30;96997.26;;;1.15;100.00
49779;BME280;36217;60.232;24.776;2023-01-30T07:43:57;96987.98;;;1.02;100.00
49779;BME280;36217;60.232;24.776;2023-01-30T07:46:24;96987.80;;;1.16;100.00
49779;BME280;36217;60.232;24.776;2023-01-30T07:48:51;96987.09;;;1.12;100.00
49779;BME280;36217;60.232;24.776;2023-01-30T07:51:19;97000.72;;;1.26;100.00
49779;BME280;36217;60.232;24.776;2023-01-30T07:53:48;96996.79;;;1.25;100.00
49779;BME280;36217;60.232;24.776;2023-01-30T07:56:16;96995.92;;;0.95;100.00
49779;BME280;36217;60.232;24.776;2023-01-30T07:58:43;96988.11;;;1.27;100.00
49779;BME280;36217;60.232;24.776;2023-01-30T08:01:10;96990.26;;;1.16;100.00
49779;BME280;36217;60.232;24.776;2023-01-30T08:03:37;96991.30;;;1.21;100.00
49779;BME280;36217;60.232;24.776;2023-01-30T08:06:04;96983.07;;;1.34;100.00
49779;BME280;36217;60.232;24.776;2023-01-30T08:08:32;96985.01;;;1.23;100.00
49779;BME280;36217;60.232;24.776;2023-01-30T08:10:59;96983.40;;;1.23;100.00
49779;BME280;36217;60.232;24.776;2023-01-30T08:13:26;96982.69;;;1.34;100.00
49779;BME280;36217;60.232;24.776;2023-01-30T08:15:53;96981.23;;;1.39;100.00
49779;BME280;36217;60.232;24.776;2023-01-30T08:18:20;96979.27;;;1.38;100.00
49779;BME280;36217;60.232;24.776;2023-01-30T08:20:47;96979.95;;;1.35;100.00
49779;BME280;36217;60.232;24.776;2023-01-30T08:23:15;96988.51;;;1.36;100.00
49779;BME280;36217;60.232;24.776;2023-01-30T08:25:42;96987.95;;;1.43;100.00
49779;BME280;36217;60.232;24.776;2023-01-30T08:28:09;96991.70;;;1.32;100.00
49779;BME280;36217;60.232;24.776;2023-01-30T08:30:36;96989.45;;;1.43;100.00
49779;BME280;36217;60.232;24.776;2023-01-30T08:33:03;96987.75;;;1.43;100.00
49779;BME280;36217;60.232;24.776;2023-01-30T08:35:30;96982.91;;;1.50;100.00
49779;BME280;36217;60.232;24.776;2023-01-30T08:37:58;96988.66;;;1.42;100.00
49779;BME280;36217;60.232;24.776;2023-01-30T08:40:25;96983.99;;;1.42;100.00
49779;BME280;36217;60.232;24.776;2023-01-30T08:42:53;96976.87;;;1.48;100.00
49779;BME280;36217;60.232;24.776;2023-01-30T08:45:20;96975.20;;;1.35;100.00
49779;BME280;36217;60.232;24.776;2023-01-30T08:47:47;96971.35;;;1.57;100.00
49779;BME280;36217;60.232;24.776;2023-01-30T08:50:15;96971.63;;;1.45;100.00
49779;BME280;36217;60.232;24.776;2023-01-30T08:52:41;96970.72;;;1.59;100.00
49779;BME280;36217;60.232;24.776;2023-01-30T08:55:09;96969.00;;;1.59;100.00
49779;BME280;36217;60.232;24.776;2023-01-30T08:57:37;96969.31;;;1.54;100.00
49779;BME280;36217;60.232;24.776;2023-01-30T09:00:05;96964.13;;;1.84;100.00
49779;BME280;36217;60.232;24.776;2023-01-30T09:02:32;96969.89;;;1.48;100.00
49779;BME280;36217;60.232;24.776;2023-01-30T09:04:59;96974.78;;;1.63;100.00
49779;BME280;36217;60.232;24.776;2023-01-30T09:07:26;96973.45;;;1.71;100.00
49779;BME280;36217;60.232;24.776;2023-01-30T09:09:53;96970.19;;;1.88;100.00
49779;BME280;36217;60.232;24.776;2023-01-30T09:12:20;96963.22;;;1.82;100.00
49779;BME280;36217;60.232;24.776;2023-01-30T09:14:47;96961.30;;;1.76;100.00
49779;BME280;36217;60.232;24.776;2023-01-30T09:17:15;96963.52;;;1.80;100.00
49779;BME280;36217;60.232;24.776;2023-01-30T09:19:42;96955.39;;;1.89;100.00
49779;BME280;36217;60.232;24.776;2023-01-30T09:22:09;96963.02;;;1.85;100.00
49779;BME280;36217;60.232;24.776;2023-01-30T09:24:36;96963.29;;;2.02;100.00
49779;BME280;36217;60.232;24.776;2023-01-30T09:27:03;96966.37;;;1.67;100.00
49779;BME280;36217;60.232;24.776;2023-01-30T09:29:30;96966.46;;;2.08;100.00
49779;BME280;36217;60.232;24.776;2023-01-30T09:31:58;96959.66;;;1.88;100.00
49779;BME280;36217;60.232;24.776;2023-01-30T09:34:25;96960.21;;;2.02;100.00
49779;BME280;36217;60.232;24.776;2023-01-30T09:36:53;96954.45;;;1.89;100.00
49779;BME280;36217;60.232;24.776;2023-01-30T09:39:20;96952.42;;;2.25;100.00
49779;BME280;36217;60.232;24.776;2023-01-30T09:41:56;96954.48;;;2.25;100.00
49779;BME280;36217;60.232;24.776;2023-01-30T09:44:43;96959.87;;;2.06;100.00
49779;BME280;36217;60.232;24.776;2023-01-30T09:47:18;96956.44;;;2.15;100.00
49779;BME280;36217;60.232;24.776;2023-01-30T09:49:57;96967.45;;;2.00;100.00
49779;BME280;36217;60.232;24.776;2023-01-30T09:52:34;96964.53;;;1.98;100.00
49779;BME280;36217;60.232;24.776;2023-01-30T09:55:16;96963.91;;;1.84;100.00
49779;BME280;36217;60.232;24.776;2023-01-30T09:57:46;96963.99;;;2.09;100.00
49779;BME280;36217;60.232;24.776;2023-01-30T10:00:20;96973.05;;;2.27;100.00
49779;BME280;36217;60.232;24.776;2023-01-30T10:02:55;96977.86;;;2.40;100.00
49779;BME280;36217;60.232;24.776;2023-01-30T10:05:29;96976.77;;;2.09;100.00
49779;BME280;36217;60.232;24.776;2023-01-30T10:08:17;96977.38;;;2.08;100.00
49779;BME280;36217;60.232;24.776;2023-01-30T10:10:49;96971.32;;;1.89;100.00
49779;BME280;36217;60.232;24.776;2023-01-30T10:13:34;96971.94;;;2.17;100.00
49779;BME280;36217;60.232;24.776;2023-01-30T10:16:06;96976.26;;;2.14;100.00
49779;BME280;36217;60.232;24.776;2023-01-30T10:18:48;96976.65;;;2.11;100.00
49779;BME280;36217;60.232;24.776;2023-01-30T10:21:27;96978.64;;;2.28;100.00
49779;BME280;36217;60.232;24.776;2023-01-30T10:24:09;96971.08;;;2.25;100.00
49779;BME280;36217;60.232;24.776;2023-01-30T10:26:41;96965.83;;;2.33;100.00
49779;BME280;36217;60.232;24.776;2023-01-30T10:29:14;96965.87;;;2.52;100.00
49779;BME280;36217;60.232;24.776;2023-01-30T10:31:47;96965.16;;;2.40;100.00
49779;BME280;36217;60.232;24.776;2023-01-30T10:34:18;96963.73;;;1.93;100.00
49779;BME280;36217;60.232;24.776;2023-01-30T10:36:52;96960.33;;;2.46;100.00
49779;BME280;36217;60.232;24.776;2023-01-30T10:39:25;96958.23;;;2.31;100.00
49779;BME280;36217;60.232;24.776;2023-01-30T10:42:01;96955.80;;;2.64;100.00
49779;BME280;36217;60.232;24.776;2023-01-30T10:44:30;96954.96;;;2.46;100.00
49779;BME280;36217;60.232;24.776;2023-01-30T10:47:20;96956.02;;;2.80;100.00
49779;BME280;36217;60.232;24.776;2023-01-30T10:49:52;96955.64;;;2.74;100.00
49779;BME280;36217;60.232;24.776;2023-01-30T10:52:28;96950.59;;;2.72;100.00
49779;BME280;36217;60.232;24.776;2023-01-30T10:55:05;96947.05;;;2.72;100.00
49779;BME280;36217;60.232;24.776;2023-01-30T10:57:46;96939.93;;;2.92;100.00
49779;BME280;36217;60.232;24.776;2023-01-30T11:00:22;96940.79;;;2.54;100.00
49779;BME280;36217;60.232;24.776;2023-01-30T11:03:08;96948.58;;;2.78;100.00
49779;BME280;36217;60.232;24.776;2023-01-30T11:05:43;96950.94;;;2.72;100.00
49779;BME280;36217;60.232;24.776;2023-01-30T11:08:20;96953.00;;;2.75;100.00
49779;BME280;36217;60.232;24.776;2023-01-30T11:10:48;96956.98;;;2.35;100.00
49779;BME280;36217;60.232;24.776;2023-01-30T11:13:18;96953.98;;;2.56;100.00
49779;BME280;36217;60.232;24.776;2023-01-30T11:15:48;96956.75;;;2.44;100.00
49779;BME280;36217;60.232;24.776;2023-01-30T11:18:17;96955.87;;;2.74;100.00
49779;BME280;36217;60.232;24.776;2023-01-30T11:20:56;96953.89;;;2.63;100.00
49779;BME280;36217;60.232;24.776;2023-01-30T11:23:30;96940.98;;;3.02;100.00
49779;BME280;36217;60.232;24.776;2023-01-30T11:26:00;96939.04;;;2.53;100.00
49779;BME280;36217;60.232;24.776;2023-01-30T11:28:34;96939.51;;;2.61;100.00
49779;BME280;36217;60.232;24.776;2023-01-30T11:31:02;96938.90;;;2.63;100.00
49779;BME280;36217;60.232;24.776;2023-01-30T11:33:31;96936.97;;;2.86;100.00
49779;BME280;36217;60.232;24.776;2023-01-30T11:36:01;96940.00;;;2.95;100.00
49779;BME280;36217;60.232;24.776;2023-01-30T11:38:30;96940.92;;;2.87;100.00
49779;BME280;36217;60.232;24.776;2023-01-30T11:41:04;96944.50;;;2.73;100.00
49779;BME280;36217;60.232;24.776;2023-01-30T11:43:33;96943.41;;;2.57;100.00
49779;BME280;36217;60.232;24.776;2023-01-30T11:46:00;96950.82;;;2.28;100.00
49779;BME280;36217;60.232;24.776;2023-01-30T11:48:30;96951.45;;;2.46;100.00
49779;BME280;36217;60.232;24.776;2023-01-30T11:51:00;96955.49;;;2.73;100.00
49779;BME280;36217;60.232;24.776;2023-01-30T11:53:33;96945.75;;;2.34;100.00
49779;BME280;36217;60.232;24.776;2023-01-30T11:56:05;96950.97;;;2.55;100.00
49779;BME280;36217;60.232;24.776;2023-01-30T11:58:37;96950.71;;;2.36;100.00
49779;BME280;36217;60.232;24.776;2023-01-30T12:01:08;96948.33;;;2.28;100.00
49779;BME280;36217;60.232;24.776;2023-01-30T12:03:42;96952.91;;;2.06;100.00
49779;BME280;36217;60.232;24.776;2023-01-30T12:06:10;96953.06;;;2.75;100.00
49779;BME280;36217;60.232;24.776;2023-01-30T12:08:39;96955.47;;;2.16;100.00
49779;BME280;36217;60.232;24.776;2023-01-30T12:11:25;96952.18;;;2.15;100.00
49779;BME280;36217;60.232;24.776;2023-01-30T12:13:54;96956.43;;;2.57;100.00
49779;BME280;36217;60.232;24.776;2023-01-30T12:16:25;96954.80;;;2.41;100.00
49779;BME280;36217;60.232;24.776;2023-01-30T12:19:02;96954.90;;;2.34;100.00
49779;BME280;36217;60.232;24.776;2023-01-30T12:21:38;96958.54;;;2.48;100.00
49779;BME280;36217;60.232;24.776;2023-01-30T12:24:18;96960.07;;;2.20;100.00
49779;BME280;36217;60.232;24.776;2023-01-30T12:26:50;96965.12;;;2.65;100.00
49779;BME280;36217;60.232;24.776;2023-01-30T12:29:23;96964.94;;;2.38;100.00
49779;BME280;36217;60.232;24.776;2023-01-30T12:32:03;96965.20;;;2.40;100.00
49779;BME280;36217;60.232;24.776;2023-01-30T12:34:31;96963.03;;;2.47;100.00
49779;BME280;36217;60.232;24.776;2023-01-30T12:37:08;96964.13;;;2.10;100.00
49779;BME280;36217;60.232;24.776;2023-01-30T12:39:47;96963.27;;;2.31;100.00
49779;BME280;36217;60.232;24.776;2023-01-30T12:42:29;96966.00;;;2.29;100.00
49779;BME280;36217;60.232;24.776;2023-01-30T12:45:05;96964.84;;;2.15;100.00
49779;BME280;36217;60.232;24.776;2023-01-30T12:47:53;96964.83;;;2.64;100.00
49779;BME280;36217;60.232;24.776;2023-01-30T12:50:30;96967.61;;;2.51;100.00
49779;BME280;36217;60.232;24.776;2023-01-30T12:53:10;96974.09;;;2.15;100.00
49779;BME280;36217;60.232;24.776;2023-01-30T12:55:47;96974.62;;;2.26;100.00
49779;BME280;36217;60.232;24.776;2023-01-30T12:58:21;96973.40;;;2.02;100.00
49779;BME280;36217;60.232;24.776;2023-01-30T13:01:01;96977.85;;;2.09;100.00
49779;BME280;36217;60.232;24.776;2023-01-30T13:03:36;96976.43;;;2.48;100.00
49779;BME280;36217;60.232;24.776;2023-01-30T13:06:13;96977.65;;;2.38;100.00
49779;BME280;36217;60.232;24.776;2023-01-30T13:08:54;96970.67;;;2.06;100.00